Wilson Heron — 9HJW9 — position and weather

sailwx.info

Track history (hours):
 
Tides and Currents Weather Stations Pressure Air Temp Water Temp Dewpoint Dewpoint Depression Visibility Wind Speed Wind Dir Waves Ship Positions

Wilson Heron

Last reported at 2017-Nov-19 00:57 UTC. Time now 2017-Nov-19 01:23 UTC.
Position N 70°51' E 021°35'.

Length 91 m; draft 5.9 m.

Type: Cargo ship. MMSI: 249075000.

Date/timePositionNaut miles runAvg speedWind from/ knotsBaromVisibWave heightAir tempDewpointWater temp
2017-Nov-19 00:57N 70°51' E 021°35'3 7.6
2017-Nov-19 00:30N 70°53' E 021°44'3 6.5
2017-Nov-19 00:00N 70°54' E 021°54'3 6.1
2017-Nov-18 23:30N 70°56' E 022°02'3 6.7
2017-Nov-18 23:00N 70°57' E 022°11'4 7.6
2017-Nov-18 22:30N 70°58' E 022°22'4 8.1
2017-Nov-18 21:59N 70°60' E 022°34'4 8.2
2017-Nov-18 21:30N 71°01' E 022°45'4 8.1
2017-Nov-18 21:00N 71°03' E 022°56'4 7.9
2017-Nov-18 20:29N 71°05' E 023°08'4 7.8
2017-Nov-18 20:00N 71°06' E 023°19'4 8.0
2017-Nov-18 19:29N 71°08' E 023°30'4 7.7
2017-Nov-18 19:00N 71°09' E 023°41'4 7.6
2017-Nov-18 18:30N 71°11' E 023°52'4 8.0
2017-Nov-18 18:00N 71°11' E 024°04'4 8.5
2017-Nov-18 17:30N 71°11' E 024°17'4 8.4
2017-Nov-18 17:00N 71°12' E 024°30'4 7.8
2017-Nov-18 16:30N 71°12' E 024°42'4 6.9
2017-Nov-18 16:00N 71°12' E 024°53'4 7.2
2017-Nov-18 15:30N 71°12' E 025°04'4 7.2
2017-Nov-18 15:00N 71°13' E 025°15'4 7.0
2017-Nov-18 14:30N 71°13' E 025°26'3 6.7
2017-Nov-18 14:00N 71°13' E 025°37'3 6.3
2017-Nov-18 13:30N 71°13' E 025°46'3 5.3
2017-Nov-18 13:00N 71°12' E 025°54'3 5.4
2017-Nov-18 12:30N 71°11' E 026°01'3 5.6
2017-Nov-18 12:00N 71°09' E 026°08'3 6.8
2017-Nov-18 11:30N 71°06' E 026°15'3 6.9
2017-Nov-18 11:00N 71°03' E 026°20'3 6.3
2017-Nov-18 10:30N 71°00' E 026°16'4 7.7
2017-Nov-18 10:00N 70°58' E 026°06'0 0.8
2017-Nov-18 09:30N 70°58' E 026°05'4 8.9
2017-Nov-18 09:00N 70°59' E 026°18'4 8.6
2017-Nov-18 08:29N 71°00' E 026°31'4 9.0
2017-Nov-18 08:00N 71°02' E 026°44'5 9.6
2017-Nov-18 07:29N 71°04' E 026°58'5 9.3
2017-Nov-18 06:59N 71°06' E 027°11'4 8.1
2017-Nov-18 06:30N 71°07' E 027°22'5 9.3
2017-Nov-18 06:00N 71°09' E 027°36'4 8.9
2017-Nov-18 05:30N 71°09' E 027°49'4 8.8
2017-Nov-18 05:00N 71°09' E 028°03'4 8.0
2017-Nov-18 04:30N 71°08' E 028°15'4 7.2
2017-Nov-18 04:00N 71°06' E 028°24'4 8.2
2017-Nov-18 03:30N 71°03' E 028°32'4 7.7
2017-Nov-18 03:00N 70°60' E 028°38'3 6.8
2017-Nov-18 02:30N 70°56' E 028°36'4 7.9
2017-Nov-18 02:00N 70°52' E 028°33'4 8.5
2017-Nov-18 01:30N 70°48' E 028°31'4 9.0
2017-Nov-18 01:00N 70°44' E 028°28'5 9.5
2017-Nov-18 00:30N 70°39' E 028°26'10 0.4
2017-Nov-16 23:22N 70°29' E 028°29'8 7.9
2017-Nov-16 22:20N 70°37' E 028°25'3 9.2
2017-Nov-16 21:59N 70°41' E 028°26'4 8.9
2017-Nov-16 21:30N 70°45' E 028°28'5 9.1
2017-Nov-16 21:00N 70°49' E 028°31'5 9.2
2017-Nov-16 20:30N 70°54' E 028°34'4 8.9
2017-Nov-16 20:00N 70°58' E 028°37'4 7.4
2017-Nov-16 19:30N 71°02' E 028°34'4 7.8
2017-Nov-16 19:00N 71°05' E 028°26'4 8.1
2017-Nov-16 18:30N 71°07' E 028°17'3 6.9
2017-Nov-16 18:00N 71°08' E 028°06'4 7.6
2017-Nov-16 17:30N 71°08' E 027°55'4 7.8
2017-Nov-16 17:00N 71°09' E 027°43'4 7.0
2017-Nov-16 16:30N 71°08' E 027°32'4 8.3
2017-Nov-16 15:59N 71°07' E 027°20'4 8.5
2017-Nov-16 15:30N 71°05' E 027°08'4 8.3
2017-Nov-16 15:00N 71°04' E 026°56'4 8.2
2017-Nov-16 14:30N 71°02' E 026°44'4 8.2
2017-Nov-16 14:00N 71°01' E 026°32'4 8.3
2017-Nov-16 13:30N 70°60' E 026°20'4 8.8
2017-Nov-16 13:00N 70°58' E 026°07'1 1.2
2017-Nov-16 12:30N 70°58' E 026°06'3 6.8
2017-Nov-16 12:00N 71°00' E 026°15'4 7.3
2017-Nov-16 11:30N 71°03' E 026°20'4 7.5
2017-Nov-16 11:00N 71°07' E 026°14'4 8.0
2017-Nov-16 10:30N 71°10' E 026°06'4 8.5
2017-Nov-16 10:00N 71°12' E 025°55'4 8.2
2017-Nov-16 09:30N 71°13' E 025°43'4 8.2
2017-Nov-16 09:00N 71°13' E 025°30'4 8.1
2017-Nov-16 08:30N 71°13' E 025°18'4 7.5
2017-Nov-16 07:59N 71°13' E 025°06'4 7.9
2017-Nov-16 07:30N 71°12' E 024°54'4 8.6
2017-Nov-16 07:00N 71°12' E 024°41'4 8.0
2017-Nov-16 06:30N 71°12' E 024°28'4 7.9
2017-Nov-16 06:00N 71°11' E 024°16'4 8.0
2017-Nov-16 05:30N 71°11' E 024°03'4 8.3
2017-Nov-16 05:00N 71°11' E 023°51'510.1
2017-Nov-16 04:30N 71°09' E 023°36'510.2
2017-Nov-16 04:00N 71°07' E 023°22'510.1
2017-Nov-16 03:30N 71°05' E 023°07'510.3
2017-Nov-16 02:59N 71°03' E 022°53'510.4
2017-Nov-16 02:30N 71°00' E 022°38'510.3
2017-Nov-16 02:00N 70°58' E 022°24'510.2
2017-Nov-16 01:30N 70°56' E 022°09'510.4
2017-Nov-16 01:00N 70°54' E 021°54'510.8
2017-Nov-16 00:30N 70°52' E 021°39'2710.5
2017-Nov-15 21:55N 70°41' E 020°24'510.6
2017-Nov-15 21:29N 70°39' E 020°12'510.2
2017-Nov-15 21:00N 70°36' E 019°59'5 9.9
2017-Nov-15 20:29N 70°34' E 019°46'5 9.9
2017-Nov-15 20:00N 70°31' E 019°34'5 9.9
2017-Nov-15 19:30N 70°28' E 019°22'510.6
2017-Nov-15 18:59N 70°25' E 019°08'510.3
2017-Nov-15 18:30N 70°23' E 018°56'510.1
2017-Nov-15 18:00N 70°20' E 018°43'510.2
2017-Nov-15 17:30N 70°17' E 018°30'510.5
2017-Nov-15 17:00N 70°14' E 018°18'510.7
2017-Nov-15 16:29N 70°10' E 018°07'510.3
2017-Nov-15 16:00N 70°06' E 017°56'510.6
2017-Nov-15 15:30N 70°03' E 017°45'510.6
2017-Nov-15 15:00N 69°59' E 017°33'510.0
2017-Nov-15 14:30N 69°56' E 017°22'5 9.7
2017-Nov-15 14:00N 69°53' E 017°12'5 9.9
2017-Nov-15 13:30N 69°49' E 017°02'510.2
2017-Nov-15 13:00N 69°45' E 016°52'510.8
2017-Nov-15 12:30N 69°42' E 016°40'611.1
2017-Nov-15 12:00N 69°38' E 016°28'511.0
2017-Nov-15 11:30N 69°35' E 016°16'611.0
2017-Nov-15 11:00N 69°31' E 016°04'611.7
2017-Nov-15 10:30N 69°27' E 015°51'611.4
2017-Nov-15 09:59N 69°23' E 015°40'511.1
2017-Nov-15 09:30N 69°19' E 015°28'611.1
2017-Nov-15 09:00N 69°15' E 015°17'511.2
2017-Nov-15 08:30N 69°12' E 015°06'610.9
2017-Nov-15 08:00N 69°08' E 014°55'510.8
2017-Nov-15 07:29N 69°04' E 014°44'611.3
2017-Nov-15 07:00N 68°60' E 014°33'611.3
2017-Nov-15 06:30N 68°56' E 014°22'611.1
2017-Nov-15 05:59N 68°51' E 014°13'511.1
2017-Nov-15 05:30N 68°47' E 014°04'510.9
2017-Nov-15 05:00N 68°42' E 013°55'511.1
2017-Nov-15 04:30N 68°38' E 013°46'611.3
2017-Nov-15 04:00N 68°33' E 013°36'611.5
2017-Nov-15 03:30N 68°29' E 013°27'510.9
2017-Nov-15 03:00N 68°25' E 013°18'510.8
2017-Nov-15 02:30N 68°20' E 013°09'611.1
2017-Nov-15 02:00N 68°16' E 013°00'611.4
2017-Nov-15 01:30N 68°11' E 012°51'611.2
2017-Nov-15 01:00N 68°07' E 012°42'611.4
2017-Nov-15 00:30N 68°02' E 012°32'510.9
2017-Nov-15 00:00N 67°58' E 012°24'80 9.9
2017-Nov-14 15:54N 66°39' E 011°43'810.9
2017-Nov-14 15:09N 66°31' E 011°47'210.9
2017-Nov-14 15:00N 66°30' E 011°47'610.7
2017-Nov-14 14:29N 66°24' E 011°49'510.2
2017-Nov-14 14:00N 66°21' E 011°59'510.8
2017-Nov-14 13:30N 66°18' E 012°09'510.3
2017-Nov-14 13:00N 66°16' E 012°21'611.3
2017-Nov-14 12:30N 66°14' E 012°35'611.6
2017-Nov-14 12:00N 66°11' E 012°47'611.1
2017-Nov-14 11:30N 66°10' E 013°01'612.4
2017-Nov-14 11:00N 66°13' E 013°14'611.0
2017-Nov-14 10:30N 66°14' E 013°27'611.7
2017-Nov-14 10:00N 66°15' E 013°42'611.8
2017-Nov-14 09:30N 66°16' E 013°56'5 9.8
2017-Nov-14 09:00N 66°18' E 014°07'0 0.2
2017-Nov-14 08:28N 66°18' E 014°07'0 0.0
2017-Nov-14 07:58N 66°18' E 014°07'0 0.0
2017-Nov-14 07:28N 66°18' E 014°07'0 0.0
2017-Nov-14 06:58N 66°18' E 014°07'0 0.0
2017-Nov-14 06:28N 66°18' E 014°07'0 0.0
2017-Nov-14 05:58N 66°18' E 014°07'0 0.0
2017-Nov-14 05:28N 66°18' E 014°07'0 0.0
2017-Nov-14 04:58N 66°18' E 014°07'0 0.0
2017-Nov-14 04:28N 66°18' E 014°07'0 0.0
2017-Nov-14 03:58N 66°18' E 014°07'0 0.0
2017-Nov-14 03:28N 66°18' E 014°07'0 0.0
2017-Nov-14 02:58N 66°18' E 014°07'0 0.0
2017-Nov-14 02:28N 66°18' E 014°07'0 0.0
2017-Nov-14 01:58N 66°18' E 014°07'0 0.0
2017-Nov-14 01:28N 66°18' E 014°07'0 0.0
2017-Nov-14 00:58N 66°18' E 014°07'0 0.0
2017-Nov-14 00:28N 66°18' E 014°07'0 0.0
2017-Nov-13 23:58N 66°18' E 014°07'0 0.0
2017-Nov-13 23:28N 66°18' E 014°07'0 0.0
2017-Nov-13 22:58N 66°18' E 014°07'0 0.0
2017-Nov-13 22:28N 66°18' E 014°07'0 0.0
2017-Nov-13 21:58N 66°18' E 014°07'75 3.4
2017-Nov-13 00:18N 65°51' E 011°15'2 5.8
2017-Nov-13 00:00N 65°50' E 011°14'3 6.0
2017-Nov-12 23:29N 65°47' E 011°13'3 6.0
2017-Nov-12 22:59N 65°44' E 011°11'3 6.5
2017-Nov-12 22:30N 65°41' E 011°09'3 6.1
2017-Nov-12 22:00N 65°38' E 011°06'3 6.0
2017-Nov-12 21:30N 65°35' E 011°03'3 5.9
2017-Nov-12 21:00N 65°32' E 011°00'3 6.0
2017-Nov-12 20:30N 65°30' E 010°57'3 6.2
2017-Nov-12 20:00N 65°27' E 010°54'3 6.6
2017-Nov-12 19:30N 65°24' E 010°51'3 6.5
2017-Nov-12 19:00N 65°21' E 010°47'3 6.2
2017-Nov-12 18:30N 65°18' E 010°44'3 6.0
2017-Nov-12 18:00N 65°16' E 010°40'3 6.1
2017-Nov-12 17:30N 65°13' E 010°37'3 5.7
2017-Nov-12 17:00N 65°10' E 010°33'3 5.7
2017-Nov-12 16:30N 65°08' E 010°30'3 5.7
2017-Nov-12 16:00N 65°05' E 010°27'82 6.9
2017-Nov-12 04:12N 64°00' E 008°32'1 7.1
2017-Nov-12 04:00N 63°59' E 008°30'3 6.9
2017-Nov-12 03:30N 63°57' E 008°25'4 7.6
2017-Nov-12 03:00N 63°54' E 008°20'4 8.7
2017-Nov-12 02:30N 63°50' E 008°14'5 9.7
2017-Nov-12 02:00N 63°46' E 008°07'5 9.8
2017-Nov-12 01:29N 63°42' E 008°00'5 9.4
2017-Nov-12 00:59N 63°39' E 007°54'4 8.7
2017-Nov-12 00:29N 63°35' E 007°47'4 8.8
2017-Nov-12 00:00N 63°33' E 007°40'5 9.3
2017-Nov-11 23:30N 63°29' E 007°33'5 9.5
2017-Nov-11 23:00N 63°26' E 007°25'5 9.5
2017-Nov-11 22:30N 63°22' E 007°18'4 8.8
2017-Nov-11 22:00N 63°19' E 007°11'4 8.4
2017-Nov-11 21:30N 63°17' E 007°04'4 8.7
2017-Nov-11 21:00N 63°14' E 006°57'4 8.7
2017-Nov-11 20:30N 63°11' E 006°50'5 9.0
2017-Nov-11 20:00N 63°07' E 006°43'5 8.9
2017-Nov-11 19:30N 63°04' E 006°36'4 8.6
2017-Nov-11 19:00N 63°01' E 006°29'4 8.5
2017-Nov-11 18:30N 62°59' E 006°22'4 8.5
2017-Nov-11 18:00N 62°56' E 006°15'4 8.3
2017-Nov-11 17:30N 62°53' E 006°08'4 8.2
2017-Nov-11 17:00N 62°50' E 006°01'4 8.7
2017-Nov-11 16:30N 62°47' E 005°54'4 8.5
2017-Nov-11 16:00N 62°45' E 005°47'4 8.5
2017-Nov-11 15:30N 62°42' E 005°40'4 8.6
2017-Nov-11 15:00N 62°39' E 005°33'4 8.8
2017-Nov-11 14:30N 62°36' E 005°27'4 8.8
2017-Nov-11 14:00N 62°32' E 005°20'4 9.0
2017-Nov-11 13:30N 62°29' E 005°14'4 8.6
2017-Nov-11 13:00N 62°26' E 005°08'4 8.1
2017-Nov-11 12:30N 62°23' E 005°02'4 7.9
2017-Nov-11 12:00N 62°19' E 004°57'4 7.8
2017-Nov-11 11:29N 62°16' E 004°53'4 8.4
2017-Nov-11 11:00N 62°13' E 004°48'4 8.8
2017-Nov-11 10:30N 62°09' E 004°42'4 8.5
2017-Nov-11 10:00N 62°06' E 004°37'4 7.9
2017-Nov-11 09:29N 62°02' E 004°32'3 6.8
2017-Nov-11 09:00N 61°60' E 004°27'27 5.2
2017-Nov-11 03:50N 61°33' E 004°21'1 4.0
2017-Nov-11 03:30N 61°32' E 004°21'2 4.1
2017-Nov-11 03:00N 61°30' E 004°21'2 4.2
2017-Nov-11 02:30N 61°28' E 004°21'3 5.0
2017-Nov-11 02:00N 61°25' E 004°20'3 5.4
2017-Nov-11 01:30N 61°23' E 004°20'3 5.6
2017-Nov-11 01:00N 61°20' E 004°19'3 5.4
2017-Nov-11 00:30N 61°17' E 004°19'3 5.7
2017-Nov-11 00:00N 61°14' E 004°19'3 5.7
2017-Nov-10 23:30N 61°12' E 004°19'3 5.8
2017-Nov-10 23:00N 61°09' E 004°19'3 6.0
2017-Nov-10 22:30N 61°06' E 004°19'3 5.9
2017-Nov-10 22:00N 61°03' E 004°18'3 5.7
2017-Nov-10 21:29N 60°60' E 004°19'3 5.7
2017-Nov-10 21:00N 60°57' E 004°19'3 6.0
2017-Nov-10 20:30N 60°54' E 004°19'3 6.1
2017-Nov-10 20:00N 60°51' E 004°20'3 5.8
2017-Nov-10 19:30N 60°48' E 004°21'3 5.8
2017-Nov-10 19:00N 60°45' E 004°23'3 5.8
2017-Nov-10 18:30N 60°43' E 004°25'3 5.5
2017-Nov-10 18:00N 60°40' E 004°28'3 5.9
2017-Nov-10 17:30N 60°38' E 004°30'3 5.5
2017-Nov-10 17:00N 60°35' E 004°33'3 6.1
2017-Nov-10 16:30N 60°33' E 004°36'3 6.2
2017-Nov-10 16:00N 60°30' E 004°38'3 6.8
2017-Nov-10 15:30N 60°27' E 004°40'3 6.8
2017-Nov-10 15:00N 60°23' E 004°42'4 7.4
2017-Nov-10 14:30N 60°20' E 004°42'4 7.3
2017-Nov-10 13:59N 60°16' E 004°43'4 7.2
2017-Nov-10 13:30N 60°12' E 004°43'4 7.5
2017-Nov-10 12:59N 60°09' E 004°43'4 7.6
2017-Nov-10 12:29N 60°05' E 004°43'4 7.5
2017-Nov-10 12:00N 60°01' E 004°43'4 8.3
2017-Nov-10 11:30N 59°57' E 004°43'4 8.4
2017-Nov-10 11:00N 59°53' E 004°43'4 8.3
2017-Nov-10 10:30N 59°49' E 004°43'4 8.0
2017-Nov-10 10:00N 59°44' E 004°44'4 7.5
2017-Nov-10 09:30N 59°41' E 004°44'4 7.5
2017-Nov-10 09:00N 59°37' E 004°42'30 7.4
2017-Nov-10 05:00N 59°08' E 004°50'3 6.8
2017-Nov-10 04:30N 59°05' E 004°55'3 6.8
2017-Nov-10 03:59N 59°03' E 004°59'4 7.0
2017-Nov-10 03:29N 58°60' E 005°03'3 6.8
2017-Nov-10 03:00N 58°57' E 005°07'3 7.0
2017-Nov-10 02:30N 58°54' E 005°11'3 6.7
2017-Nov-10 02:00N 58°51' E 005°14'3 6.6
2017-Nov-10 01:30N 58°49' E 005°17'3 6.5
2017-Nov-10 00:59N 58°46' E 005°21'3 6.4
2017-Nov-10 00:30N 58°43' E 005°24'3 6.4
2017-Nov-10 00:00N 58°40' E 005°27'3 6.6
2017-Nov-09 23:30N 58°37' E 005°29'3 7.0
2017-Nov-09 23:00N 58°34' E 005°31'4 7.3
2017-Nov-09 22:30N 58°30' E 005°32'4 6.9
2017-Nov-09 22:00N 58°27' E 005°33'3 6.6
2017-Nov-09 21:30N 58°24' E 005°34'3 6.3
2017-Nov-09 21:00N 58°21' E 005°35'3 6.4
2017-Nov-09 20:30N 58°17' E 005°37'3 6.6
2017-Nov-09 20:00N 58°14' E 005°38'3 7.0
2017-Nov-09 19:30N 58°11' E 005°38'  
Track history (hours):
 
Tides and Currents Weather Stations Pressure Air Temp Water Temp Dewpoint Dewpoint Depression Visibility Wind Speed Wind Dir Waves Ship Positions

Wilson Heron

Last reported at 2017-Nov-19 00:57 UTC. Time now 2017-Nov-19 01:23 UTC.
Position N 70°51' E 021°35'.

Length 91 m; draft 5.9 m.

Type: Cargo ship. MMSI: 249075000.

Date/timePositionNaut miles runAvg speedWind from/ knotsBaromVisibWave heightAir tempDewpointWater temp
2017-Nov-19 00:57N 70°51' E 021°35'3 7.6
2017-Nov-19 00:30N 70°53' E 021°44'3 6.5
2017-Nov-19 00:00N 70°54' E 021°54'3 6.1
2017-Nov-18 23:30N 70°56' E 022°02'3 6.7
2017-Nov-18 23:00N 70°57' E 022°11'4 7.6
2017-Nov-18 22:30N 70°58' E 022°22'4 8.1
2017-Nov-18 21:59N 70°60' E 022°34'4 8.2
2017-Nov-18 21:30N 71°01' E 022°45'4 8.1
2017-Nov-18 21:00N 71°03' E 022°56'4 7.9
2017-Nov-18 20:29N 71°05' E 023°08'4 7.8
2017-Nov-18 20:00N 71°06' E 023°19'4 8.0
2017-Nov-18 19:29N 71°08' E 023°30'4 7.7
2017-Nov-18 19:00N 71°09' E 023°41'4 7.6
2017-Nov-18 18:30N 71°11' E 023°52'4 8.0
2017-Nov-18 18:00N 71°11' E 024°04'4 8.5
2017-Nov-18 17:30N 71°11' E 024°17'4 8.4
2017-Nov-18 17:00N 71°12' E 024°30'4 7.8
2017-Nov-18 16:30N 71°12' E 024°42'4 6.9
2017-Nov-18 16:00N 71°12' E 024°53'4 7.2
2017-Nov-18 15:30N 71°12' E 025°04'4 7.2
2017-Nov-18 15:00N 71°13' E 025°15'4 7.0
2017-Nov-18 14:30N 71°13' E 025°26'3 6.7
2017-Nov-18 14:00N 71°13' E 025°37'3 6.3
2017-Nov-18 13:30N 71°13' E 025°46'3 5.3
2017-Nov-18 13:00N 71°12' E 025°54'3 5.4
2017-Nov-18 12:30N 71°11' E 026°01'3 5.6
2017-Nov-18 12:00N 71°09' E 026°08'3 6.8
2017-Nov-18 11:30N 71°06' E 026°15'3 6.9
2017-Nov-18 11:00N 71°03' E 026°20'3 6.3
2017-Nov-18 10:30N 71°00' E 026°16'4 7.7
2017-Nov-18 10:00N 70°58' E 026°06'0 0.8
2017-Nov-18 09:30N 70°58' E 026°05'4 8.9
2017-Nov-18 09:00N 70°59' E 026°18'4 8.6
2017-Nov-18 08:29N 71°00' E 026°31'4 9.0
2017-Nov-18 08:00N 71°02' E 026°44'5 9.6
2017-Nov-18 07:29N 71°04' E 026°58'5 9.3
2017-Nov-18 06:59N 71°06' E 027°11'4 8.1
2017-Nov-18 06:30N 71°07' E 027°22'5 9.3
2017-Nov-18 06:00N 71°09' E 027°36'4 8.9
2017-Nov-18 05:30N 71°09' E 027°49'4 8.8
2017-Nov-18 05:00N 71°09' E 028°03'4 8.0
2017-Nov-18 04:30N 71°08' E 028°15'4 7.2
2017-Nov-18 04:00N 71°06' E 028°24'4 8.2
2017-Nov-18 03:30N 71°03' E 028°32'4 7.7
2017-Nov-18 03:00N 70°60' E 028°38'3 6.8
2017-Nov-18 02:30N 70°56' E 028°36'4 7.9
2017-Nov-18 02:00N 70°52' E 028°33'4 8.5
2017-Nov-18 01:30N 70°48' E 028°31'4 9.0
2017-Nov-18 01:00N 70°44' E 028°28'5 9.5
2017-Nov-18 00:30N 70°39' E 028°26'10 0.4
2017-Nov-16 23:22N 70°29' E 028°29'8 7.9
2017-Nov-16 22:20N 70°37' E 028°25'3 9.2
2017-Nov-16 21:59N 70°41' E 028°26'4 8.9
2017-Nov-16 21:30N 70°45' E 028°28'5 9.1
2017-Nov-16 21:00N 70°49' E 028°31'5 9.2
2017-Nov-16 20:30N 70°54' E 028°34'4 8.9
2017-Nov-16 20:00N 70°58' E 028°37'4 7.4
2017-Nov-16 19:30N 71°02' E 028°34'4 7.8
2017-Nov-16 19:00N 71°05' E 028°26'4 8.1
2017-Nov-16 18:30N 71°07' E 028°17'3 6.9
2017-Nov-16 18:00N 71°08' E 028°06'4 7.6
2017-Nov-16 17:30N 71°08' E 027°55'4 7.8
2017-Nov-16 17:00N 71°09' E 027°43'4 7.0
2017-Nov-16 16:30N 71°08' E 027°32'4 8.3
2017-Nov-16 15:59N 71°07' E 027°20'4 8.5
2017-Nov-16 15:30N 71°05' E 027°08'4 8.3
2017-Nov-16 15:00N 71°04' E 026°56'4 8.2
2017-Nov-16 14:30N 71°02' E 026°44'4 8.2
2017-Nov-16 14:00N 71°01' E 026°32'4 8.3
2017-Nov-16 13:30N 70°60' E 026°20'4 8.8
2017-Nov-16 13:00N 70°58' E 026°07'1 1.2
2017-Nov-16 12:30N 70°58' E 026°06'3 6.8
2017-Nov-16 12:00N 71°00' E 026°15'4 7.3
2017-Nov-16 11:30N 71°03' E 026°20'4 7.5
2017-Nov-16 11:00N 71°07' E 026°14'4 8.0
2017-Nov-16 10:30N 71°10' E 026°06'4 8.5
2017-Nov-16 10:00N 71°12' E 025°55'4 8.2
2017-Nov-16 09:30N 71°13' E 025°43'4 8.2
2017-Nov-16 09:00N 71°13' E 025°30'4 8.1
2017-Nov-16 08:30N 71°13' E 025°18'4 7.5
2017-Nov-16 07:59N 71°13' E 025°06'4 7.9
2017-Nov-16 07:30N 71°12' E 024°54'4 8.6
2017-Nov-16 07:00N 71°12' E 024°41'4 8.0
2017-Nov-16 06:30N 71°12' E 024°28'4 7.9
2017-Nov-16 06:00N 71°11' E 024°16'4 8.0
2017-Nov-16 05:30N 71°11' E 024°03'4 8.3
2017-Nov-16 05:00N 71°11' E 023°51'510.1
2017-Nov-16 04:30N 71°09' E 023°36'510.2
2017-Nov-16 04:00N 71°07' E 023°22'510.1
2017-Nov-16 03:30N 71°05' E 023°07'510.3
2017-Nov-16 02:59N 71°03' E 022°53'510.4
2017-Nov-16 02:30N 71°00' E 022°38'510.3
2017-Nov-16 02:00N 70°58' E 022°24'510.2
2017-Nov-16 01:30N 70°56' E 022°09'510.4
2017-Nov-16 01:00N 70°54' E 021°54'510.8
2017-Nov-16 00:30N 70°52' E 021°39'2710.5
2017-Nov-15 21:55N 70°41' E 020°24'510.6
2017-Nov-15 21:29N 70°39' E 020°12'510.2
2017-Nov-15 21:00N 70°36' E 019°59'5 9.9
2017-Nov-15 20:29N 70°34' E 019°46'5 9.9
2017-Nov-15 20:00N 70°31' E 019°34'5 9.9
2017-Nov-15 19:30N 70°28' E 019°22'510.6
2017-Nov-15 18:59N 70°25' E 019°08'510.3
2017-Nov-15 18:30N 70°23' E 018°56'510.1
2017-Nov-15 18:00N 70°20' E 018°43'510.2
2017-Nov-15 17:30N 70°17' E 018°30'510.5
2017-Nov-15 17:00N 70°14' E 018°18'510.7
2017-Nov-15 16:29N 70°10' E 018°07'510.3
2017-Nov-15 16:00N 70°06' E 017°56'510.6
2017-Nov-15 15:30N 70°03' E 017°45'510.6
2017-Nov-15 15:00N 69°59' E 017°33'510.0
2017-Nov-15 14:30N 69°56' E 017°22'5 9.7
2017-Nov-15 14:00N 69°53' E 017°12'5 9.9
2017-Nov-15 13:30N 69°49' E 017°02'510.2
2017-Nov-15 13:00N 69°45' E 016°52'510.8
2017-Nov-15 12:30N 69°42' E 016°40'611.1
2017-Nov-15 12:00N 69°38' E 016°28'511.0
2017-Nov-15 11:30N 69°35' E 016°16'611.0
2017-Nov-15 11:00N 69°31' E 016°04'611.7
2017-Nov-15 10:30N 69°27' E 015°51'611.4
2017-Nov-15 09:59N 69°23' E 015°40'511.1
2017-Nov-15 09:30N 69°19' E 015°28'611.1
2017-Nov-15 09:00N 69°15' E 015°17'511.2
2017-Nov-15 08:30N 69°12' E 015°06'610.9
2017-Nov-15 08:00N 69°08' E 014°55'510.8
2017-Nov-15 07:29N 69°04' E 014°44'611.3
2017-Nov-15 07:00N 68°60' E 014°33'611.3
2017-Nov-15 06:30N 68°56' E 014°22'611.1
2017-Nov-15 05:59N 68°51' E 014°13'511.1
2017-Nov-15 05:30N 68°47' E 014°04'510.9
2017-Nov-15 05:00N 68°42' E 013°55'511.1
2017-Nov-15 04:30N 68°38' E 013°46'611.3
2017-Nov-15 04:00N 68°33' E 013°36'611.5
2017-Nov-15 03:30N 68°29' E 013°27'510.9
2017-Nov-15 03:00N 68°25' E 013°18'510.8
2017-Nov-15 02:30N 68°20' E 013°09'611.1
2017-Nov-15 02:00N 68°16' E 013°00'611.4
2017-Nov-15 01:30N 68°11' E 012°51'611.2
2017-Nov-15 01:00N 68°07' E 012°42'611.4
2017-Nov-15 00:30N 68°02' E 012°32'510.9
2017-Nov-15 00:00N 67°58' E 012°24'80 9.9
2017-Nov-14 15:54N 66°39' E 011°43'810.9
2017-Nov-14 15:09N 66°31' E 011°47'210.9
2017-Nov-14 15:00N 66°30' E 011°47'610.7
2017-Nov-14 14:29N 66°24' E 011°49'510.2
2017-Nov-14 14:00N 66°21' E 011°59'510.8
2017-Nov-14 13:30N 66°18' E 012°09'510.3
2017-Nov-14 13:00N 66°16' E 012°21'611.3
2017-Nov-14 12:30N 66°14' E 012°35'611.6
2017-Nov-14 12:00N 66°11' E 012°47'611.1
2017-Nov-14 11:30N 66°10' E 013°01'612.4
2017-Nov-14 11:00N 66°13' E 013°14'611.0
2017-Nov-14 10:30N 66°14' E 013°27'611.7
2017-Nov-14 10:00N 66°15' E 013°42'611.8
2017-Nov-14 09:30N 66°16' E 013°56'5 9.8
2017-Nov-14 09:00N 66°18' E 014°07'0 0.2
2017-Nov-14 08:28N 66°18' E 014°07'0 0.0
2017-Nov-14 07:58N 66°18' E 014°07'0 0.0
2017-Nov-14 07:28N 66°18' E 014°07'0 0.0
2017-Nov-14 06:58N 66°18' E 014°07'0 0.0
2017-Nov-14 06:28N 66°18' E 014°07'0 0.0
2017-Nov-14 05:58N 66°18' E 014°07'0 0.0
2017-Nov-14 05:28N 66°18' E 014°07'0 0.0
2017-Nov-14 04:58N 66°18' E 014°07'0 0.0
2017-Nov-14 04:28N 66°18' E 014°07'0 0.0
2017-Nov-14 03:58N 66°18' E 014°07'0 0.0
2017-Nov-14 03:28N 66°18' E 014°07'0 0.0
2017-Nov-14 02:58N 66°18' E 014°07'0 0.0
2017-Nov-14 02:28N 66°18' E 014°07'0 0.0
2017-Nov-14 01:58N 66°18' E 014°07'0 0.0
2017-Nov-14 01:28N 66°18' E 014°07'0 0.0
2017-Nov-14 00:58N 66°18' E 014°07'0 0.0
2017-Nov-14 00:28N 66°18' E 014°07'0 0.0
2017-Nov-13 23:58N 66°18' E 014°07'0 0.0
2017-Nov-13 23:28N 66°18' E 014°07'0 0.0
2017-Nov-13 22:58N 66°18' E 014°07'0 0.0
2017-Nov-13 22:28N 66°18' E 014°07'0 0.0
2017-Nov-13 21:58N 66°18' E 014°07'75 3.4
2017-Nov-13 00:18N 65°51' E 011°15'2 5.8
2017-Nov-13 00:00N 65°50' E 011°14'3 6.0
2017-Nov-12 23:29N 65°47' E 011°13'3 6.0
2017-Nov-12 22:59N 65°44' E 011°11'3 6.5
2017-Nov-12 22:30N 65°41' E 011°09'3 6.1
2017-Nov-12 22:00N 65°38' E 011°06'3 6.0
2017-Nov-12 21:30N 65°35' E 011°03'3 5.9
2017-Nov-12 21:00N 65°32' E 011°00'3 6.0
2017-Nov-12 20:30N 65°30' E 010°57'3 6.2
2017-Nov-12 20:00N 65°27' E 010°54'3 6.6
2017-Nov-12 19:30N 65°24' E 010°51'3 6.5
2017-Nov-12 19:00N 65°21' E 010°47'3 6.2
2017-Nov-12 18:30N 65°18' E 010°44'3 6.0
2017-Nov-12 18:00N 65°16' E 010°40'3 6.1
2017-Nov-12 17:30N 65°13' E 010°37'3 5.7
2017-Nov-12 17:00N 65°10' E 010°33'3 5.7
2017-Nov-12 16:30N 65°08' E 010°30'3 5.7
2017-Nov-12 16:00N 65°05' E 010°27'82 6.9
2017-Nov-12 04:12N 64°00' E 008°32'1 7.1
2017-Nov-12 04:00N 63°59' E 008°30'3 6.9
2017-Nov-12 03:30N 63°57' E 008°25'4 7.6
2017-Nov-12 03:00N 63°54' E 008°20'4 8.7
2017-Nov-12 02:30N 63°50' E 008°14'5 9.7
2017-Nov-12 02:00N 63°46' E 008°07'5 9.8
2017-Nov-12 01:29N 63°42' E 008°00'5 9.4
2017-Nov-12 00:59N 63°39' E 007°54'4 8.7
2017-Nov-12 00:29N 63°35' E 007°47'4 8.8
2017-Nov-12 00:00N 63°33' E 007°40'5 9.3
2017-Nov-11 23:30N 63°29' E 007°33'5 9.5
2017-Nov-11 23:00N 63°26' E 007°25'5 9.5
2017-Nov-11 22:30N 63°22' E 007°18'4 8.8
2017-Nov-11 22:00N 63°19' E 007°11'4 8.4
2017-Nov-11 21:30N 63°17' E 007°04'4 8.7
2017-Nov-11 21:00N 63°14' E 006°57'4 8.7
2017-Nov-11 20:30N 63°11' E 006°50'5 9.0
2017-Nov-11 20:00N 63°07' E 006°43'5 8.9
2017-Nov-11 19:30N 63°04' E 006°36'4 8.6
2017-Nov-11 19:00N 63°01' E 006°29'4 8.5
2017-Nov-11 18:30N 62°59' E 006°22'4 8.5
2017-Nov-11 18:00N 62°56' E 006°15'4 8.3
2017-Nov-11 17:30N 62°53' E 006°08'4 8.2
2017-Nov-11 17:00N 62°50' E 006°01'4 8.7
2017-Nov-11 16:30N 62°47' E 005°54'4 8.5
2017-Nov-11 16:00N 62°45' E 005°47'4 8.5
2017-Nov-11 15:30N 62°42' E 005°40'4 8.6
2017-Nov-11 15:00N 62°39' E 005°33'4 8.8
2017-Nov-11 14:30N 62°36' E 005°27'4 8.8
2017-Nov-11 14:00N 62°32' E 005°20'4 9.0
2017-Nov-11 13:30N 62°29' E 005°14'4 8.6
2017-Nov-11 13:00N 62°26' E 005°08'4 8.1
2017-Nov-11 12:30N 62°23' E 005°02'4 7.9
2017-Nov-11 12:00N 62°19' E 004°57'4 7.8
2017-Nov-11 11:29N 62°16' E 004°53'4 8.4
2017-Nov-11 11:00N 62°13' E 004°48'4 8.8
2017-Nov-11 10:30N 62°09' E 004°42'4 8.5
2017-Nov-11 10:00N 62°06' E 004°37'4 7.9
2017-Nov-11 09:29N 62°02' E 004°32'3 6.8
2017-Nov-11 09:00N 61°60' E 004°27'27 5.2
2017-Nov-11 03:50N 61°33' E 004°21'1 4.0
2017-Nov-11 03:30N 61°32' E 004°21'2 4.1
2017-Nov-11 03:00N 61°30' E 004°21'2 4.2
2017-Nov-11 02:30N 61°28' E 004°21'3 5.0
2017-Nov-11 02:00N 61°25' E 004°20'3 5.4
2017-Nov-11 01:30N 61°23' E 004°20'3 5.6
2017-Nov-11 01:00N 61°20' E 004°19'3 5.4
2017-Nov-11 00:30N 61°17' E 004°19'3 5.7
2017-Nov-11 00:00N 61°14' E 004°19'3 5.7
2017-Nov-10 23:30N 61°12' E 004°19'3 5.8
2017-Nov-10 23:00N 61°09' E 004°19'3 6.0
2017-Nov-10 22:30N 61°06' E 004°19'3 5.9
2017-Nov-10 22:00N 61°03' E 004°18'3 5.7
2017-Nov-10 21:29N 60°60' E 004°19'3 5.7
2017-Nov-10 21:00N 60°57' E 004°19'3 6.0
2017-Nov-10 20:30N 60°54' E 004°19'3 6.1
2017-Nov-10 20:00N 60°51' E 004°20'3 5.8
2017-Nov-10 19:30N 60°48' E 004°21'3 5.8
2017-Nov-10 19:00N 60°45' E 004°23'3 5.8
2017-Nov-10 18:30N 60°43' E 004°25'3 5.5
2017-Nov-10 18:00N 60°40' E 004°28'3 5.9
2017-Nov-10 17:30N 60°38' E 004°30'3 5.5
2017-Nov-10 17:00N 60°35' E 004°33'3 6.1
2017-Nov-10 16:30N 60°33' E 004°36'3 6.2
2017-Nov-10 16:00N 60°30' E 004°38'3 6.8
2017-Nov-10 15:30N 60°27' E 004°40'3 6.8
2017-Nov-10 15:00N 60°23' E 004°42'4 7.4
2017-Nov-10 14:30N 60°20' E 004°42'4 7.3
2017-Nov-10 13:59N 60°16' E 004°43'4 7.2
2017-Nov-10 13:30N 60°12' E 004°43'4 7.5
2017-Nov-10 12:59N 60°09' E 004°43'4 7.6
2017-Nov-10 12:29N 60°05' E 004°43'4 7.5
2017-Nov-10 12:00N 60°01' E 004°43'4 8.3
2017-Nov-10 11:30N 59°57' E 004°43'4 8.4
2017-Nov-10 11:00N 59°53' E 004°43'4 8.3
2017-Nov-10 10:30N 59°49' E 004°43'4 8.0
2017-Nov-10 10:00N 59°44' E 004°44'4 7.5
2017-Nov-10 09:30N 59°41' E 004°44'4 7.5
2017-Nov-10 09:00N 59°37' E 004°42'30 7.4
2017-Nov-10 05:00N 59°08' E 004°50'3 6.8
2017-Nov-10 04:30N 59°05' E 004°55'3 6.8
2017-Nov-10 03:59N 59°03' E 004°59'4 7.0
2017-Nov-10 03:29N 58°60' E 005°03'3 6.8
2017-Nov-10 03:00N 58°57' E 005°07'3 7.0
2017-Nov-10 02:30N 58°54' E 005°11'3 6.7
2017-Nov-10 02:00N 58°51' E 005°14'3 6.6
2017-Nov-10 01:30N 58°49' E 005°17'3 6.5
2017-Nov-10 00:59N 58°46' E 005°21'3 6.4
2017-Nov-10 00:30N 58°43' E 005°24'3 6.4
2017-Nov-10 00:00N 58°40' E 005°27'3 6.6
2017-Nov-09 23:30N 58°37' E 005°29'3 7.0
2017-Nov-09 23:00N 58°34' E 005°31'4 7.3
2017-Nov-09 22:30N 58°30' E 005°32'4 6.9
2017-Nov-09 22:00N 58°27' E 005°33'3 6.6
2017-Nov-09 21:30N 58°24' E 005°34'3 6.3
2017-Nov-09 21:00N 58°21' E 005°35'3 6.4
2017-Nov-09 20:30N 58°17' E 005°37'3 6.6
2017-Nov-09 20:00N 58°14' E 005°38'3 7.0
2017-Nov-09 19:30N 58°11' E 005°38'  

Dump ship's entire track history